Time;durP1;ratioP1;P1;durP2;ratioP2;P2;SDS_P1;SDS_P2;PMS_P1;PMS_P2;Temp;Humidity;BMP_temperature;BMP_pressure;BME280_temperature;BME280_humidity;BME280_pressure;Samples;Min_cycle;Max_cycle;Signal;HPM_P1;HPM_P2
2023/05/15 00:01:12;;;;;;;1.03;1.03;;;;;;;;;;5016226;28;20203;-86
2023/05/15 00:03:41;;;;;;;2.83;2.70;;;;;;;;;;5015896;28;20203;-86
2023/05/15 00:06:11;;;;;;;0.60;0.60;;;;;;;;;;5016287;28;20207;-86
2023/05/15 00:08:40;;;;;;;1.40;1.30;;;;;;;;;;5016505;28;20258;-86
2023/05/15 00:11:08;;;;;;;2.10;2.00;;;;;;;;;;5015588;28;20203;-86
2023/05/15 00:13:37;;;;;;;4.03;2.70;;;;;;;;;;5015972;28;20239;-86
2023/05/15 00:16:06;;;;;;;2.93;2.73;;;;;;;;;;5015790;28;20228;-86
2023/05/15 00:18:35;;;;;;;8.17;5.73;;;;;;;;;;5015869;28;20223;-86
2023/05/15 00:21:04;;;;;;;8.90;6.80;;;;;;;;;;5015306;28;20206;-86
2023/05/15 00:23:33;;;;;;;4.73;4.30;;;;;;;;;;5015482;28;20231;-86
2023/05/15 00:26:02;;;;;;;6.60;6.00;;;;;;;;;;5015386;28;20258;-86
2023/05/15 00:28:31;;;;;;;3.47;3.00;;;;;;;;;;5015525;28;20273;-86
2023/05/15 00:30:59;;;;;;;0.70;0.70;;;;;;;;;;5015505;28;20204;-86
2023/05/15 00:33:28;;;;;;;8.23;5.60;;;;;;;;;;5015428;28;20229;-86
2023/05/15 00:35:59;;;;;;;1.13;1.13;;;;;;;;;;5015212;28;20204;-86
2023/05/15 00:38:27;;;;;;;3.53;3.23;;;;;;;;;;5015178;28;20223;-86
2023/05/15 00:40:57;;;;;;;1.00;1.00;;;;;;;;;;5015456;28;20200;-85
2023/05/15 00:43:28;;;;;;;3.30;3.00;;;;;;;;;;5015148;28;20203;-85
2023/05/15 00:45:58;;;;;;;2.13;1.97;;;;;;;;;;5015337;28;20204;-85
2023/05/15 00:48:28;;;;;;;3.87;1.33;;;;;;;;;;5015123;28;20391;-86
2023/05/15 00:50:58;;;;;;;0.63;0.63;;;;;;;;;;5014933;28;20210;-86
2023/05/15 00:53:27;;;;;;;4.97;4.47;;;;;;;;;;5015359;28;20239;-86
2023/05/15 00:55:58;;;;;;;1.33;1.33;;;;;;;;;;5014915;28;20203;-86
2023/05/15 00:58:28;;;;;;;1.13;1.13;;;;;;;;;;5014985;28;20290;-86
2023/05/15 01:00:56;;;;;;;2.90;2.70;;;;;;;;;;5015371;28;20220;-86
2023/05/15 01:03:25;;;;;;;6.10;2.47;;;;;;;;;;5014825;28;20249;-86
2023/05/15 01:05:54;;;;;;;2.53;2.30;;;;;;;;;;5013767;28;20200;-86
2023/05/15 01:08:27;;;;;;;5.13;3.53;;;;;;;;;;5014736;28;20198;-86
2023/05/15 01:10:56;;;;;;;2.03;1.77;;;;;;;;;;5015402;28;20302;-86
2023/05/15 01:13:26;;;;;;;0.80;0.80;;;;;;;;;;5014800;28;20239;-86
2023/05/15 01:15:57;;;;;;;1.00;1.00;;;;;;;;;;5015457;28;20631;-86
2023/05/15 01:18:30;;;;;;;1.90;1.27;;;;;;;;;;5014616;28;20216;-86
2023/05/15 01:21:17;;;;;;;0.90;0.90;;;;;;;;;;5014640;28;20195;-86
2023/05/15 01:23:50;;;;;;;0.60;0.60;;;;;;;;;;5014498;28;20254;-86
2023/05/15 01:26:39;;;;;;;1.30;1.20;;;;;;;;;;5014410;28;20227;-86
2023/05/15 01:29:13;;;;;;;0.97;0.97;;;;;;;;;;5014719;28;20200;-85
2023/05/15 01:31:42;;;;;;;0.60;0.60;;;;;;;;;;5015549;28;20277;-86
2023/05/15 01:34:11;;;;;;;0.60;0.60;;;;;;;;;;5014546;28;20202;-87
2023/05/15 01:36:43;;;;;;;0.70;0.70;;;;;;;;;;5014179;28;20192;-86
2023/05/15 01:39:12;;;;;;;0.50;0.50;;;;;;;;;;5014007;28;20286;-86
2023/05/15 01:41:42;;;;;;;0.60;0.60;;;;;;;;;;5014194;28;20207;-86
2023/05/15 01:44:15;;;;;;;3.63;3.43;;;;;;;;;;5013989;28;20211;-86
2023/05/15 01:46:45;;;;;;;1.23;1.23;;;;;;;;;;5013438;28;20188;-86
2023/05/15 01:49:16;;;;;;;1.30;1.30;;;;;;;;;;5014252;28;20218;-86
2023/05/15 01:51:47;;;;;;;5.13;4.53;;;;;;;;;;5014293;28;20230;-86
2023/05/15 01:54:16;;;;;;;3.93;3.70;;;;;;;;;;5013137;28;20222;-86
2023/05/15 01:56:46;;;;;;;2.60;2.40;;;;;;;;;;5014073;28;20210;-86
2023/05/15 01:59:16;;;;;;;2.97;2.60;;;;;;;;;;5013643;28;20224;-87
2023/05/15 02:01:45;;;;;;;3.07;2.87;;;;;;;;;;5013545;28;20208;-86
2023/05/15 02:04:14;;;;;;;3.87;3.47;;;;;;;;;;5013973;28;20204;-86
2023/05/15 02:06:43;;;;;;;5.67;4.73;;;;;;;;;;5013671;28;20199;-86
2023/05/15 02:09:12;;;;;;;3.13;2.83;;;;;;;;;;5013175;28;20231;-86
2023/05/15 02:11:41;;;;;;;2.57;2.43;;;;;;;;;;5013890;28;20302;-86
2023/05/15 02:14:10;;;;;;;2.23;2.13;;;;;;;;;;5013206;28;20239;-86
2023/05/15 02:16:39;;;;;;;0.70;0.70;;;;;;;;;;5012794;28;20196;-85
2023/05/15 02:19:08;;;;;;;2.63;2.43;;;;;;;;;;5013080;28;20287;-86
2023/05/15 02:21:37;;;;;;;11.23;7.60;;;;;;;;;;5013518;28;20211;-87
2023/05/15 02:24:05;;;;;;;4.60;4.23;;;;;;;;;;5012856;28;20192;-86
2023/05/15 02:26:37;;;;;;;2.43;2.23;;;;;;;;;;5013139;28;20281;-86
2023/05/15 02:29:10;;;;;;;3.40;3.23;;;;;;;;;;5013766;28;20256;-87
2023/05/15 02:31:43;;;;;;;5.00;4.20;;;;;;;;;;5013027;28;20216;-86
2023/05/15 02:34:17;;;;;;;5.17;4.87;;;;;;;;;;5013328;28;20263;-86
2023/05/15 02:36:49;;;;;;;0.97;0.97;;;;;;;;;;5013241;28;20196;-87
2023/05/15 02:39:17;;;;;;;0.60;0.60;;;;;;;;;;5013298;28;20208;-87
2023/05/15 02:41:47;;;;;;;0.80;0.80;;;;;;;;;;5013074;28;20199;-86
2023/05/15 02:44:16;;;;;;;0.70;0.70;;;;;;;;;;5013445;28;20200;-86
2023/05/15 02:46:46;;;;;;;0.60;0.60;;;;;;;;;;5013383;28;20227;-86
2023/05/15 02:49:15;;;;;;;0.77;0.77;;;;;;;;;;5013064;28;20195;-86
2023/05/15 02:51:43;;;;;;;2.30;2.20;;;;;;;;;;5013345;28;20200;-86
2023/05/15 02:54:12;;;;;;;0.70;0.70;;;;;;;;;;5013329;28;20208;-86
2023/05/15 02:56:40;;;;;;;1.40;1.30;;;;;;;;;;5012778;28;20200;-87
2023/05/15 02:59:09;;;;;;;2.00;1.90;;;;;;;;;;5012664;28;20374;-86
2023/05/15 03:01:37;;;;;;;3.10;2.90;;;;;;;;;;5012703;28;20246;-86
2023/05/15 03:04:07;;;;;;;5.17;4.17;;;;;;;;;;5012702;28;20203;-87
2023/05/15 03:06:36;;;;;;;7.00;5.23;;;;;;;;;;5012703;28;20207;-86
2023/05/15 03:09:04;;;;;;;4.30;4.00;;;;;;;;;;5012586;28;20219;-86
2023/05/15 03:11:33;;;;;;;4.67;3.90;;;;;;;;;;5012589;28;20216;-86
2023/05/15 03:14:02;;;;;;;6.70;5.43;;;;;;;;;;5011984;28;20239;-86
2023/05/15 03:16:30;;;;;;;7.23;5.57;;;;;;;;;;5012620;28;20203;-86
2023/05/15 03:18:59;;;;;;;7.97;7.23;;;;;;;;;;5012404;28;20222;-87
2023/05/15 03:21:29;;;;;;;5.23;4.07;;;;;;;;;;5012016;28;20228;-86
2023/05/15 03:23:57;;;;;;;5.90;5.17;;;;;;;;;;5012553;28;20265;-86
2023/05/15 03:26:26;;;;;;;5.37;3.10;;;;;;;;;;5012560;28;20283;-86
2023/05/15 03:28:54;;;;;;;7.20;4.77;;;;;;;;;;5011433;28;20265;-86
2023/05/15 03:31:23;;;;;;;2.13;2.03;;;;;;;;;;5012878;28;20203;-85
2023/05/15 03:33:51;;;;;;;3.13;2.83;;;;;;;;;;5012415;28;20299;-86
2023/05/15 03:36:21;;;;;;;4.57;4.17;;;;;;;;;;5011998;28;20227;-86
2023/05/15 03:38:51;;;;;;;7.90;5.43;;;;;;;;;;5012334;28;20283;-86
2023/05/15 03:41:20;;;;;;;11.90;4.70;;;;;;;;;;5012356;28;20231;-86
2023/05/15 03:43:48;;;;;;;2.40;2.23;;;;;;;;;;5011847;28;20210;-87
2023/05/15 03:46:17;;;;;;;5.27;4.80;;;;;;;;;;5012400;28;20281;-86
2023/05/15 03:48:45;;;;;;;5.40;4.90;;;;;;;;;;5012144;28;20208;-86
2023/05/15 03:51:13;;;;;;;5.37;4.87;;;;;;;;;;5011921;28;20262;-87
2023/05/15 03:53:42;;;;;;;5.77;4.43;;;;;;;;;;5012354;28;20199;-86
2023/05/15 03:56:12;;;;;;;5.07;4.57;;;;;;;;;;5012317;28;20199;-86
2023/05/15 03:58:40;;;;;;;2.00;1.90;;;;;;;;;;5011853;28;20203;-86
2023/05/15 04:01:08;;;;;;;3.67;3.47;;;;;;;;;;5011822;28;20216;-86
2023/05/15 04:03:37;;;;;;;7.90;4.27;;;;;;;;;;5012039;28;20200;-86
2023/05/15 04:06:06;;;;;;;3.60;3.30;;;;;;;;;;5012298;28;20262;-87
2023/05/15 04:08:34;;;;;;;13.47;6.97;;;;;;;;;;5012359;28;20238;-86
2023/05/15 04:11:03;;;;;;;3.37;3.17;;;;;;;;;;5012524;28;20258;-86
2023/05/15 04:13:33;;;;;;;4.37;3.97;;;;;;;;;;5011898;28;20239;-85
2023/05/15 04:16:01;;;;;;;5.07;4.37;;;;;;;;;;5011852;28;20203;-85
2023/05/15 04:18:31;;;;;;;3.30;3.00;;;;;;;;;;5012492;28;20327;-85
2023/05/15 04:20:59;;;;;;;2.60;2.50;;;;;;;;;;5011911;28;20218;-85
2023/05/15 04:23:28;;;;;;;7.50;6.80;;;;;;;;;;5011716;28;20203;-86
2023/05/15 04:25:56;;;;;;;5.53;4.87;;;;;;;;;;5012011;28;20208;-86
2023/05/15 04:28:25;;;;;;;6.60;5.17;;;;;;;;;;5011738;28;20273;-85
2023/05/15 04:30:55;;;;;;;3.87;3.57;;;;;;;;;;5011783;28;20286;-86
2023/05/15 04:33:23;;;;;;;4.30;3.57;;;;;;;;;;5011893;28;20200;-85
2023/05/15 04:35:52;;;;;;;6.60;5.67;;;;;;;;;;5011735;28;20266;-85
2023/05/15 04:38:20;;;;;;;2.00;1.90;;;;;;;;;;5011663;28;20211;-86
2023/05/15 04:40:49;;;;;;;8.30;4.27;;;;;;;;;;5014732;28;20226;-86
2023/05/15 04:43:19;;;;;;;5.90;5.40;;;;;;;;;;5015403;28;20200;-86
2023/05/15 04:45:50;;;;;;;5.13;4.63;;;;;;;;;;5015470;28;20279;-86
2023/05/15 04:48:20;;;;;;;5.27;4.80;;;;;;;;;;5014916;28;20192;-86
2023/05/15 04:50:48;;;;;;;7.00;6.30;;;;;;;;;;5015212;28;20200;-85
2023/05/15 04:53:17;;;;;;;5.83;4.57;;;;;;;;;;5015106;28;20257;-86
2023/05/15 04:55:46;;;;;;;6.83;5.50;;;;;;;;;;5015406;28;20208;-85
2023/05/15 04:58:14;;;;;;;8.27;5.27;;;;;;;;;;5015123;28;20204;-85
2023/05/15 05:00:43;;;;;;;7.63;5.37;;;;;;;;;;5014837;28;20216;-85
2023/05/15 05:03:11;;;;;;;5.03;4.63;;;;;;;;;;5014546;28;20200;-85
2023/05/15 05:05:41;;;;;;;2.80;2.63;;;;;;;;;;5014842;28;20204;-85
2023/05/15 05:08:10;;;;;;;1.77;1.67;;;;;;;;;;5014803;28;20219;-85
2023/05/15 05:10:38;;;;;;;7.83;5.70;;;;;;;;;;5014610;28;20200;-85
2023/05/15 05:13:07;;;;;;;3.87;3.57;;;;;;;;;;5014679;28;20236;-86
2023/05/15 05:15:35;;;;;;;10.43;7.63;;;;;;;;;;5014879;28;20207;-85
2023/05/15 05:18:04;;;;;;;13.27;10.30;;;;;;;;;;5014526;28;20215;-85
2023/05/15 05:20:33;;;;;;;9.70;8.80;;;;;;;;;;5014475;28;20265;-85
2023/05/15 05:23:03;;;;;;;6.77;5.90;;;;;;;;;;5015080;28;20196;-85
2023/05/15 05:25:31;;;;;;;9.90;7.47;;;;;;;;;;5014758;28;20207;-85
2023/05/15 05:28:00;;;;;;;10.10;7.83;;;;;;;;;;5014518;28;20219;-85
2023/05/15 05:30:28;;;;;;;6.33;4.73;;;;;;;;;;5014775;28;20200;-85
2023/05/15 05:32:57;;;;;;;4.73;3.30;;;;;;;;;;5015024;28;20238;-85
2023/05/15 05:35:28;;;;;;;12.97;7.97;;;;;;;;;;5014410;28;20315;-85
2023/05/15 05:37:56;;;;;;;5.90;2.57;;;;;;;;;;5014984;28;20238;-86
2023/05/15 05:40:27;;;;;;;6.70;4.60;;;;;;;;;;5014273;28;20264;-86
2023/05/15 05:42:55;;;;;;;5.57;4.47;;;;;;;;;;5014381;28;20331;-85
2023/05/15 05:45:24;;;;;;;6.07;5.50;;;;;;;;;;5014160;28;20265;-85
2023/05/15 05:47:52;;;;;;;14.53;6.87;;;;;;;;;;5014255;28;20192;-84
2023/05/15 05:50:21;;;;;;;12.80;8.60;;;;;;;;;;5013043;28;20254;-84
2023/05/15 05:52:49;;;;;;;17.40;8.93;;;;;;;;;;5014357;28;20202;-85
2023/05/15 05:55:18;;;;;;;5.13;3.80;;;;;;;;;;5013443;28;20199;-85
2023/05/15 05:57:48;;;;;;;5.87;5.00;;;;;;;;;;5013058;28;20203;-85
2023/05/15 06:00:19;;;;;;;9.40;5.63;;;;;;;;;;5013125;28;20215;-84
2023/05/15 06:02:47;;;;;;;5.27;4.80;;;;;;;;;;5012981;28;20259;-84
2023/05/15 06:05:16;;;;;;;7.90;7.03;;;;;;;;;;5013657;28;20207;-84
2023/05/15 06:07:45;;;;;;;1.77;1.67;;;;;;;;;;5013054;28;20199;-84
2023/05/15 06:10:15;;;;;;;3.53;3.23;;;;;;;;;;5013262;28;20201;-83
2023/05/15 06:12:44;;;;;;;4.47;4.17;;;;;;;;;;5013419;28;20236;-82
2023/05/15 06:15:14;;;;;;;6.23;4.67;;;;;;;;;;5013157;28;20250;-83
2023/05/15 06:17:43;;;;;;;4.63;3.53;;;;;;;;;;5013644;28;20200;-83
2023/05/15 06:20:15;;;;;;;3.27;3.00;;;;;;;;;;5013639;28;20200;-83
2023/05/15 06:22:44;;;;;;;8.67;4.33;;;;;;;;;;5013044;28;20260;-84
2023/05/15 06:25:13;;;;;;;5.87;3.90;;;;;;;;;;5013186;28;20196;-83
2023/05/15 06:27:42;;;;;;;3.50;3.17;;;;;;;;;;5013448;28;20274;-83
2023/05/15 06:30:11;;;;;;;2.07;1.97;;;;;;;;;;5012668;28;20204;-82
2023/05/15 06:32:41;;;;;;;3.27;3.07;;;;;;;;;;5013347;28;20216;-82
2023/05/15 06:35:10;;;;;;;7.47;5.00;;;;;;;;;;5013465;28;20228;-82
2023/05/15 06:37:39;;;;;;;2.20;1.83;;;;;;;;;;5012715;28;20235;-83
2023/05/15 06:40:08;;;;;;;15.23;7.07;;;;;;;;;;5013153;28;20202;-83
2023/05/15 06:42:36;;;;;;;8.27;7.53;;;;;;;;;;5012859;28;20225;-82
2023/05/15 06:45:05;;;;;;;5.70;5.30;;;;;;;;;;5012989;28;20201;-83
2023/05/15 06:47:34;;;;;;;4.73;4.33;;;;;;;;;;5013242;28;20209;-83
2023/05/15 06:50:04;;;;;;;2.43;2.33;;;;;;;;;;5013072;28;20208;-83
2023/05/15 06:52:33;;;;;;;1.57;1.47;;;;;;;;;;5013244;28;20224;-82
2023/05/15 06:55:02;;;;;;;2.30;2.10;;;;;;;;;;5012294;28;20216;-83
2023/05/15 06:57:30;;;;;;;5.03;4.67;;;;;;;;;;5012644;28;20203;-83
2023/05/15 06:59:59;;;;;;;3.03;2.83;;;;;;;;;;5013183;28;20234;-83
2023/05/15 07:02:27;;;;;;;3.70;3.50;;;;;;;;;;5011135;28;20225;-83
2023/05/15 07:04:56;;;;;;;5.47;3.13;;;;;;;;;;5013311;28;20209;-83
2023/05/15 07:07:26;;;;;;;13.13;7.13;;;;;;;;;;5012571;28;20202;-83
2023/05/15 07:09:54;;;;;;;1.33;1.33;;;;;;;;;;5012486;28;20203;-83
2023/05/15 07:12:28;;;;;;;8.97;4.90;;;;;;;;;;5011226;28;20193;-83
2023/05/15 07:14:56;;;;;;;14.73;7.90;;;;;;;;;;5010007;28;20213;-83
2023/05/15 07:17:28;;;;;;;11.70;8.03;;;;;;;;;;5012460;28;20201;-83
2023/05/15 07:19:56;;;;;;;18.10;12.53;;;;;;;;;;5012629;28;20209;-82
2023/05/15 07:22:28;;;;;;;15.40;10.87;;;;;;;;;;5012364;28;20458;-82
2023/05/15 07:24:56;;;;;;;8.30;5.17;;;;;;;;;;5012707;28;20210;-83
2023/05/15 07:27:25;;;;;;;3.23;3.03;;;;;;;;;;5012427;28;20284;-82
2023/05/15 07:29:53;;;;;;;13.63;8.87;;;;;;;;;;5012013;28;20205;-83
2023/05/15 07:32:22;;;;;;;10.90;8.67;;;;;;;;;;5012193;28;20202;-82
2023/05/15 07:34:51;;;;;;;13.23;8.10;;;;;;;;;;5011697;28;20232;-83
2023/05/15 07:37:19;;;;;;;13.60;9.63;;;;;;;;;;5012396;28;20194;-82
2023/05/15 07:39:49;;;;;;;5.77;4.97;;;;;;;;;;5012756;28;20260;-82
2023/05/15 07:42:17;;;;;;;4.87;3.73;;;;;;;;;;5012118;28;20231;-82
2023/05/15 07:44:46;;;;;;;11.47;5.53;;;;;;;;;;5012430;28;20252;-83
2023/05/15 07:47:17;;;;;;;1.77;1.67;;;;;;;;;;5012536;28;20257;-82
2023/05/15 07:49:45;;;;;;;8.33;6.10;;;;;;;;;;5012500;28;20353;-83
2023/05/15 07:52:14;;;;;;;4.83;4.53;;;;;;;;;;5012259;28;20202;-82
2023/05/15 07:54:42;;;;;;;11.53;8.60;;;;;;;;;;5011983;28;20255;-82
2023/05/15 07:57:12;;;;;;;10.80;8.53;;;;;;;;;;5011522;28;20237;-83
2023/05/15 07:59:41;;;;;;;6.67;3.53;;;;;;;;;;5011729;28;20221;-82
2023/05/15 08:02:10;;;;;;;8.83;5.60;;;;;;;;;;5011858;28;20218;-85
2023/05/15 08:04:45;;;;;;;9.27;3.87;;;;;;;;;;5011864;28;20296;-82
2023/05/15 08:07:16;;;;;;;12.70;9.40;;;;;;;;;;5012133;28;20266;-83
2023/05/15 08:09:45;;;;;;;8.30;7.00;;;;;;;;;;5012214;28;20209;-82
2023/05/15 08:12:19;;;;;;;9.83;5.90;;;;;;;;;;5011964;28;20191;-82
2023/05/15 08:14:49;;;;;;;10.17;8.43;;;;;;;;;;5014012;28;20235;-82
2023/05/15 08:17:18;;;;;;;13.07;10.07;;;;;;;;;;5015988;28;20286;-82
2023/05/15 08:19:47;;;;;;;6.67;4.77;;;;;;;;;;5015744;28;20209;-82
2023/05/15 08:22:15;;;;;;;6.87;6.30;;;;;;;;;;5015316;28;20227;-82
2023/05/15 08:24:44;;;;;;;7.13;6.47;;;;;;;;;;5015672;28;20206;-82
2023/05/15 08:27:12;;;;;;;1.53;1.53;;;;;;;;;;5015868;28;20226;-82
2023/05/15 08:29:42;;;;;;;9.73;6.60;;;;;;;;;;5016135;28;20218;-83
2023/05/15 08:32:11;;;;;;;6.80;6.13;;;;;;;;;;5015482;28;20206;-83
2023/05/15 08:34:39;;;;;;;3.97;3.37;;;;;;;;;;5015350;28;20237;-83
2023/05/15 08:37:08;;;;;;;13.53;6.73;;;;;;;;;;5015303;28;20210;-83
2023/05/15 08:39:36;;;;;;;6.93;6.27;;;;;;;;;;5015623;28;20198;-83
2023/05/15 08:42:09;;;;;;;5.20;4.80;;;;;;;;;;5015899;28;20266;-83
2023/05/15 08:44:38;;;;;;;5.97;5.37;;;;;;;;;;5015502;28;20235;-83
2023/05/15 08:47:08;;;;;;;3.87;3.57;;;;;;;;;;5015621;28;20423;-82
2023/05/15 08:49:40;;;;;;;9.53;6.77;;;;;;;;;;5015021;28;20225;-82
2023/05/15 08:52:10;;;;;;;1.60;1.50;;;;;;;;;;5014947;28;20203;-83
2023/05/15 08:54:39;;;;;;;3.13;2.90;;;;;;;;;;5015197;28;20228;-83
2023/05/15 08:57:09;;;;;;;3.10;2.90;;;;;;;;;;5015134;28;20240;-82
2023/05/15 08:59:38;;;;;;;8.23;7.07;;;;;;;;;;5014758;28;20251;-83
2023/05/15 09:02:08;;;;;;;5.63;4.77;;;;;;;;;;5014967;28;20214;-83
2023/05/15 09:04:37;;;;;;;4.53;4.13;;;;;;;;;;5015098;28;20220;-83
2023/05/15 09:07:06;;;;;;;6.93;5.37;;;;;;;;;;5015221;28;20206;-82
2023/05/15 09:09:35;;;;;;;5.40;4.60;;;;;;;;;;5014994;28;20213;-82
2023/05/15 09:12:04;;;;;;;4.33;3.93;;;;;;;;;;5015167;28;20202;-83
2023/05/15 09:14:32;;;;;;;5.93;5.47;;;;;;;;;;5014496;28;20237;-83
2023/05/15 09:17:01;;;;;;;10.47;8.80;;;;;;;;;;5014379;28;20201;-82
2023/05/15 09:19:31;;;;;;;8.50;5.90;;;;;;;;;;5014803;28;20297;-79
2023/05/15 09:22:15;;;;;;;7.63;6.13;;;;;;;;;;5014967;28;20223;-79
2023/05/15 09:24:46;;;;;;;7.93;7.17;;;;;;;;;;5014492;28;20249;-80
2023/05/15 09:27:15;;;;;;;5.70;5.10;;;;;;;;;;5013479;28;20219;-80
2023/05/15 09:29:44;;;;;;;11.27;8.33;;;;;;;;;;5014638;28;20206;-80
2023/05/15 09:32:13;;;;;;;9.33;8.37;;;;;;;;;;5014222;28;20256;-79
2023/05/15 09:34:44;;;;;;;12.70;10.07;;;;;;;;;;5014366;28;20209;-80
2023/05/15 09:37:27;;;;;;;7.33;6.63;;;;;;;;;;5014378;28;20229;-79
2023/05/15 09:39:56;;;;;;;6.63;5.57;;;;;;;;;;5014025;28;20234;-79
2023/05/15 09:42:25;;;;;;;10.00;8.37;;;;;;;;;;5014604;28;20225;-80
2023/05/15 09:44:57;;;;;;;5.77;4.27;;;;;;;;;;5012392;28;20217;-79
2023/05/15 09:47:27;;;;;;;5.97;5.33;;;;;;;;;;5013353;28;20218;-81
2023/05/15 09:49:58;;;;;;;5.67;5.13;;;;;;;;;;5014183;28;20241;-81
2023/05/15 09:52:28;;;;;;;7.43;6.53;;;;;;;;;;5014645;28;20264;-81
2023/05/15 09:54:57;;;;;;;3.20;3.00;;;;;;;;;;5014835;28;20207;-80
2023/05/15 09:57:26;;;;;;;5.10;4.37;;;;;;;;;;5014822;28;20326;-80
2023/05/15 09:59:54;;;;;;;3.03;2.93;;;;;;;;;;5015126;28;20206;-80
2023/05/15 10:02:24;;;;;;;8.97;5.10;;;;;;;;;;4997836;28;20276;-81
2023/05/15 10:04:56;;;;;;;13.30;11.90;;;;;;;;;;5014580;28;20225;-81
2023/05/15 10:07:29;;;;;;;10.10;6.77;;;;;;;;;;5015114;28;20261;-80
2023/05/15 10:09:58;;;;;;;7.40;6.40;;;;;;;;;;5015156;28;20203;-81
2023/05/15 10:12:27;;;;;;;9.73;7.10;;;;;;;;;;5014839;28;20215;-81
2023/05/15 10:14:57;;;;;;;5.03;4.70;;;;;;;;;;5011982;28;20266;-81
2023/05/15 10:17:28;;;;;;;6.57;5.90;;;;;;;;;;5012882;28;20246;-82
2023/05/15 10:19:59;;;;;;;5.57;4.93;;;;;;;;;;5014560;28;20206;-82
2023/05/15 10:22:29;;;;;;;14.77;5.90;;;;;;;;;;5011405;28;20205;-81
2023/05/15 10:25:03;;;;;;;4.40;3.93;;;;;;;;;;5012589;28;20262;-81
2023/05/15 10:27:34;;;;;;;7.40;5.77;;;;;;;;;;5013502;28;20214;-81
2023/05/15 10:30:03;;;;;;;4.37;3.97;;;;;;;;;;5013302;28;20200;-82
2023/05/15 10:32:33;;;;;;;7.70;6.13;;;;;;;;;;4999642;28;20207;-81
2023/05/15 10:35:03;;;;;;;3.23;3.03;;;;;;;;;;5000943;28;20266;-81
2023/05/15 10:37:32;;;;;;;11.43;6.43;;;;;;;;;;5000105;28;20307;-82
2023/05/15 10:40:08;;;;;;;7.13;6.33;;;;;;;;;;5005695;28;20257;-81
2023/05/15 10:42:37;;;;;;;3.70;3.03;;;;;;;;;;5002694;28;20211;-81
2023/05/15 10:45:08;;;;;;;6.87;4.73;;;;;;;;;;4994684;28;20226;-82
2023/05/15 10:47:39;;;;;;;5.20;4.13;;;;;;;;;;4994888;28;20245;-81
2023/05/15 10:50:08;;;;;;;8.20;5.13;;;;;;;;;;5001409;28;20239;-81
2023/05/15 10:52:37;;;;;;;6.10;5.23;;;;;;;;;;5005681;28;20295;-81
2023/05/15 10:55:08;;;;;;;5.03;3.87;;;;;;;;;;4998630;28;20235;-81
2023/05/15 10:57:37;;;;;;;2.47;2.07;;;;;;;;;;5001723;28;20219;-81
2023/05/15 11:00:24;;;;;;;4.67;3.53;;;;;;;;;;4995529;28;20270;-81
2023/05/15 11:02:55;;;;;;;5.83;4.07;;;;;;;;;;5013001;28;20206;-81
2023/05/15 11:05:24;;;;;;;5.70;4.10;;;;;;;;;;5002892;28;20234;-82
2023/05/15 11:08:12;;;;;;;6.90;4.93;;;;;;;;;;4999596;28;20208;-82
2023/05/15 11:10:41;;;;;;;6.73;5.60;;;;;;;;;;5000603;28;20212;-81
2023/05/15 11:13:10;;;;;;;13.63;9.37;;;;;;;;;;5000783;28;20227;-83
2023/05/15 11:15:43;;;;;;;11.07;7.57;;;;;;;;;;5000798;28;20207;-83
2023/05/15 11:18:11;;;;;;;19.67;11.83;;;;;;;;;;5007979;28;20209;-82
2023/05/15 11:20:40;;;;;;;17.43;11.20;;;;;;;;;;5004867;28;20272;-82
2023/05/15 11:23:09;;;;;;;13.10;8.17;;;;;;;;;;5001557;28;20239;-81
2023/05/15 11:25:37;;;;;;;10.60;8.63;;;;;;;;;;4996158;28;20222;-81
2023/05/15 11:28:07;;;;;;;9.00;5.83;;;;;;;;;;5004140;28;20234;-80
2023/05/15 11:30:37;;;;;;;10.83;8.30;;;;;;;;;;5003104;28;20230;-81
2023/05/15 11:33:09;;;;;;;12.57;8.03;;;;;;;;;;5006703;28;20206;-82
2023/05/15 11:35:39;;;;;;;12.47;7.27;;;;;;;;;;5009114;28;20206;-81
2023/05/15 11:38:12;;;;;;;9.10;5.37;;;;;;;;;;5006374;28;20214;-81
2023/05/15 11:40:48;;;;;;;10.70;7.87;;;;;;;;;;5001189;28;20211;-80
2023/05/15 11:43:21;;;;;;;13.07;4.53;;;;;;;;;;5007373;28;20242;-80
2023/05/15 11:45:54;;;;;;;3.67;3.37;;;;;;;;;;5005081;28;20231;-81
2023/05/15 11:48:24;;;;;;;10.40;4.77;;;;;;;;;;5004780;28;20207;-83
2023/05/15 11:50:53;;;;;;;6.00;3.40;;;;;;;;;;5009624;28;20208;-84
2023/05/15 11:53:22;;;;;;;2.67;2.23;;;;;;;;;;5007772;28;20215;-83
2023/05/15 11:55:53;;;;;;;1.67;1.57;;;;;;;;;;5013541;28;20207;-84
2023/05/15 11:58:23;;;;;;;6.63;3.77;;;;;;;;;;5011824;28;20207;-84
2023/05/15 12:00:55;;;;;;;4.87;2.93;;;;;;;;;;5004640;28;20213;-84
2023/05/15 12:03:26;;;;;;;4.47;2.57;;;;;;;;;;5008055;28;20234;-83
2023/05/15 12:05:55;;;;;;;4.90;2.30;;;;;;;;;;5009429;28;20281;-85
2023/05/15 12:08:32;;;;;;;3.23;2.50;;;;;;;;;;5007571;28;20215;-86
2023/05/15 12:11:01;;;;;;;3.20;1.40;;;;;;;;;;5012251;28;20210;-85
2023/05/15 12:13:31;;;;;;;4.87;2.80;;;;;;;;;;5008783;28;20353;-85
2023/05/15 12:16:01;;;;;;;2.57;2.30;;;;;;;;;;5002983;28;20215;-84
2023/05/15 12:18:33;;;;;;;3.30;2.80;;;;;;;;;;5003605;28;20270;-85
2023/05/15 12:21:04;;;;;;;2.90;2.57;;;;;;;;;;4994793;28;20360;-87
2023/05/15 12:23:33;;;;;;;4.17;2.97;;;;;;;;;;4996655;28;20223;-84
2023/05/15 12:26:02;;;;;;;2.23;2.00;;;;;;;;;;5002691;28;20232;-86
2023/05/15 12:28:34;;;;;;;2.47;1.90;;;;;;;;;;5006474;28;20310;-87
2023/05/15 12:31:02;;;;;;;5.33;2.53;;;;;;;;;;5008385;28;20223;-85
2023/05/15 12:33:33;;;;;;;3.23;2.00;;;;;;;;;;5002720;28;20227;-87
2023/05/15 12:36:02;;;;;;;5.40;2.67;;;;;;;;;;5001945;28;20211;-86
2023/05/15 12:38:33;;;;;;;4.00;2.73;;;;;;;;;;5000538;28;20238;-85
2023/05/15 12:41:01;;;;;;;6.50;3.73;;;;;;;;;;5004424;28;20245;-85
2023/05/15 12:43:31;;;;;;;3.60;2.43;;;;;;;;;;5002624;28;20284;-85
2023/05/15 12:46:16;;;;;;;5.73;2.43;;;;;;;;;;5004542;28;20235;-85
2023/05/15 12:48:45;;;;;;;3.83;2.70;;;;;;;;;;5000291;28;20228;-85
2023/05/15 12:51:18;;;;;;;3.30;2.60;;;;;;;;;;5004380;28;20228;-85
2023/05/15 12:53:47;;;;;;;3.00;2.73;;;;;;;;;;5000902;28;20233;-85
2023/05/15 12:56:17;;;;;;;7.87;3.73;;;;;;;;;;5011089;28;20209;-85
2023/05/15 12:58:53;;;;;;;14.70;2.57;;;;;;;;;;5006059;28;20237;-86
2023/05/15 13:01:25;;;;;;;3.40;2.77;;;;;;;;;;5005971;28;20242;-85
2023/05/15 13:03:54;;;;;;;2.10;2.00;;;;;;;;;;4999827;28;20315;-85
2023/05/15 13:06:23;;;;;;;3.80;1.87;;;;;;;;;;5000435;28;20304;-85
2023/05/15 13:09:06;;;;;;;5.90;1.83;;;;;;;;;;5003109;28;20224;-84
2023/05/15 13:11:35;;;;;;;4.33;2.73;;;;;;;;;;5001940;28;20218;-85
2023/05/15 13:14:09;;;;;;;2.13;2.03;;;;;;;;;;4997100;28;20245;-85
2023/05/15 13:16:40;;;;;;;3.47;2.07;;;;;;;;;;5002670;28;20229;-86
2023/05/15 13:19:17;;;;;;;4.70;1.93;;;;;;;;;;5003252;28;20215;-87
2023/05/15 13:21:59;;;;;;;1.83;1.77;;;;;;;;;;5002560;28;20252;-86
2023/05/15 13:24:33;;;;;;;2.63;2.43;;;;;;;;;;4999456;28;20243;-86
2023/05/15 13:27:31;;;;;;;1.60;1.50;;;;;;;;;;5003174;28;20321;-86
2023/05/15 13:30:31;;;;;;;1.63;1.53;;;;;;;;;;5006526;28;20277;-91
2023/05/15 13:33:59;;;;;;;2.07;1.90;;;;;;;;;;4913966;29;20225;-88
2023/05/15 13:36:36;;;;;;;2.13;1.93;;;;;;;;;;4907934;29;20232;-91
2023/05/15 13:39:27;;;;;;;1.33;1.23;;;;;;;;;;4909359;29;20282;-89
2023/05/15 13:42:14;;;;;;;1.07;1.07;;;;;;;;;;4936639;28;20223;-88
2023/05/15 13:44:51;;;;;;;2.90;2.60;;;;;;;;;;4950260;28;20226;-88
2023/05/15 13:47:20;;;;;;;3.87;2.40;;;;;;;;;;4942096;28;20236;-88
2023/05/15 13:49:53;;;;;;;4.97;1.67;;;;;;;;;;4944920;28;20235;-90
2023/05/15 13:52:30;;;;;;;2.30;2.10;;;;;;;;;;5003025;28;20229;-89
2023/05/15 13:55:08;;;;;;;4.57;2.43;;;;;;;;;;5007462;28;20214;-90
2023/05/15 13:58:00;;;;;;;1.13;1.13;;;;;;;;;;5005814;28;20253;-91
2023/05/15 14:00:50;;;;;;;3.70;2.00;;;;;;;;;;5004367;28;20230;-89
2023/05/15 14:03:33;;;;;;;4.60;2.67;;;;;;;;;;5006329;28;20276;-92
2023/05/15 14:06:12;;;;;;;4.20;2.60;;;;;;;;;;5002917;28;20222;-90
2023/05/15 14:08:45;;;;;;;3.93;2.40;;;;;;;;;;5005394;28;20259;-93
2023/05/15 14:11:21;;;;;;;4.80;2.90;;;;;;;;;;5007349;28;20203;-91
2023/05/15 14:13:50;;;;;;;6.40;3.93;;;;;;;;;;5012037;28;20277;-90
2023/05/15 14:16:51;;;;;;;;;;;;;;;;;;;;;
2023/05/15 14:19:55;;;;;;;9.37;4.03;;;;;;;;;;4953688;29;20234;-90
2023/05/15 14:22:37;;;;;;;2.90;1.90;;;;;;;;;;4957996;29;20224;-88
2023/05/15 14:28:36;;;;;;;3.30;2.90;;;;;;;;;;4940914;29;20266;-93
2023/05/15 14:31:47;;;;;;;6.97;3.00;;;;;;;;;;4948033;29;20211;-94
2023/05/15 14:34:17;;;;;;;5.33;3.40;;;;;;;;;;4941944;29;20227;-91
2023/05/15 14:37:15;;;;;;;;;;;;;;;;;;;;;
2023/05/15 14:40:01;;;;;;;0.97;0.77;;;;;;;;;;4942860;29;20304;-88
2023/05/15 14:42:34;;;;;;;2.10;1.90;;;;;;;;;;4943904;29;20340;-87
2023/05/15 14:45:24;;;;;;;2.77;2.07;;;;;;;;;;4947710;29;20254;-91
2023/05/15 14:47:58;;;;;;;2.13;1.80;;;;;;;;;;4948242;28;20213;-94
2023/05/15 14:50:26;;;;;;;3.67;1.67;;;;;;;;;;4956209;28;20207;-87
2023/05/15 14:52:55;;;;;;;3.87;1.97;;;;;;;;;;5004691;28;20205;-87
2023/05/15 14:55:24;;;;;;;1.73;1.63;;;;;;;;;;5007043;28;20206;-88
2023/05/15 14:57:53;;;;;;;3.93;2.27;;;;;;;;;;5000635;28;20219;-88
2023/05/15 15:00:23;;;;;;;2.70;1.47;;;;;;;;;;5007700;28;20221;-88
2023/05/15 15:02:52;;;;;;;5.20;2.30;;;;;;;;;;5006788;28;20248;-88
2023/05/15 15:05:33;;;;;;;7.23;2.20;;;;;;;;;;5007384;28;20202;-87
2023/05/15 15:08:02;;;;;;;10.87;2.63;;;;;;;;;;5001211;28;20241;-90
2023/05/15 15:10:31;;;;;;;7.07;2.33;;;;;;;;;;4998902;28;20213;-88